createdAt,value
2017-12-21T00:02:09.712Z,29.80
2017-12-21T00:04:38.098Z,33.60
2017-12-21T00:07:06.436Z,30.10
2017-12-21T00:09:35.577Z,32.10
2017-12-21T00:12:04.060Z,28.87
2017-12-21T00:14:32.479Z,33.47
2017-12-21T00:17:00.913Z,31.27
2017-12-21T00:19:29.338Z,34.27
2017-12-21T00:21:58.471Z,34.77
2017-12-21T00:24:26.817Z,27.33
2017-12-21T00:26:55.174Z,29.67
2017-12-21T00:29:23.516Z,36.07
2017-12-21T00:31:51.850Z,27.10
2017-12-21T00:34:20.243Z,26.87
2017-12-21T00:36:49.358Z,27.30
2017-12-21T00:39:18.472Z,31.77
2017-12-21T00:41:46.997Z,26.83
2017-12-21T00:44:15.420Z,25.63
2017-12-21T00:46:43.823Z,30.70
2017-12-21T00:49:12.187Z,26.23
2017-12-21T00:51:40.511Z,22.23
2017-12-21T00:54:08.854Z,21.07
2017-12-21T00:56:37.223Z,23.40
2017-12-21T00:59:05.584Z,21.57
2017-12-21T01:01:33.944Z,23.07
2017-12-21T01:04:03.319Z,25.27
2017-12-21T01:06:31.753Z,20.93
2017-12-21T01:09:00.123Z,22.80
2017-12-21T01:11:28.503Z,22.13
2017-12-21T01:13:57.644Z,25.57
2017-12-21T01:16:26.621Z,21.60
2017-12-21T01:18:55.025Z,18.03
2017-12-21T01:21:23.335Z,16.23
2017-12-21T01:23:51.668Z,21.00
2017-12-21T01:26:20.357Z,19.97
2017-12-21T01:28:48.715Z,24.70
2017-12-21T01:31:17.062Z,22.93
2017-12-21T01:33:45.454Z,20.53
2017-12-21T01:36:14.539Z,20.00
2017-12-21T01:38:43.624Z,25.60
2017-12-21T01:41:11.995Z,29.53
2017-12-21T01:43:40.359Z,24.47
2017-12-21T01:46:08.725Z,19.40
2017-12-21T01:48:37.323Z,21.50
2017-12-21T01:51:05.683Z,19.50
2017-12-21T01:53:34.062Z,21.53
2017-12-21T01:56:02.462Z,23.43
2017-12-21T01:58:30.783Z,19.10
2017-12-21T02:00:59.876Z,17.50
2017-12-21T02:03:28.282Z,17.53
2017-12-21T02:05:56.623Z,18.20
2017-12-21T02:08:24.965Z,17.27
2017-12-21T02:10:53.823Z,15.10
2017-12-21T02:13:22.239Z,19.43
2017-12-21T02:15:50.584Z,17.80
2017-12-21T02:18:18.939Z,15.03
2017-12-21T02:20:48.053Z,13.17
2017-12-21T02:23:16.406Z,13.53
2017-12-21T02:25:44.790Z,16.00
2017-12-21T02:28:13.185Z,16.83
2017-12-21T02:30:42.305Z,15.83
2017-12-21T02:33:10.998Z,13.60
2017-12-21T02:35:39.307Z,23.53
2017-12-21T02:38:08.403Z,15.13
2017-12-21T02:40:36.750Z,11.10
2017-12-21T02:43:05.098Z,13.27
2017-12-21T02:45:33.452Z,17.30
2017-12-21T02:48:01.831Z,14.70
2017-12-21T02:50:30.167Z,9.53
2017-12-21T02:52:58.506Z,9.63
2017-12-21T02:55:28.027Z,10.73
2017-12-21T02:57:57.177Z,11.10
2017-12-21T03:00:25.533Z,7.47
2017-12-21T03:02:53.888Z,8.37
2017-12-21T03:05:22.324Z,8.67
2017-12-21T03:07:50.665Z,14.70
2017-12-21T03:10:19.002Z,12.73
2017-12-21T03:12:48.144Z,7.47
2017-12-21T03:15:16.455Z,11.00
2017-12-21T03:20:42.056Z,16.90
2017-12-21T03:23:10.430Z,8.97
2017-12-21T03:25:39.083Z,6.10
2017-12-21T03:28:21.707Z,6.37
2017-12-21T03:30:50.166Z,6.27
2017-12-21T03:33:18.477Z,5.90
2017-12-21T03:35:48.197Z,5.53
2017-12-21T03:38:16.704Z,6.13
2017-12-21T03:40:47.554Z,5.83
2017-12-21T03:43:16.044Z,5.73
2017-12-21T03:45:44.409Z,5.03
2017-12-21T03:48:15.604Z,4.50
2017-12-21T03:50:43.968Z,6.10
2017-12-21T03:53:13.077Z,4.70
2017-12-21T03:55:42.180Z,4.90
2017-12-21T03:58:10.516Z,5.97
2017-12-21T04:00:38.925Z,4.37
2017-12-21T04:03:08.023Z,5.50
2017-12-21T04:05:37.127Z,5.27
2017-12-21T04:08:06.241Z,4.90
2017-12-21T04:10:34.538Z,5.50
2017-12-21T04:13:02.885Z,4.77
2017-12-21T04:15:31.252Z,7.23
2017-12-21T04:18:00.323Z,6.10
2017-12-21T04:20:28.666Z,5.00
2017-12-21T04:22:57.112Z,5.90
2017-12-21T04:25:25.473Z,4.73
2017-12-21T04:27:53.825Z,5.60
2017-12-21T04:30:22.218Z,7.83
2017-12-21T04:32:50.547Z,5.53
2017-12-21T04:35:18.883Z,5.80
2017-12-21T04:37:47.253Z,6.40
2017-12-21T04:40:15.582Z,5.50
2017-12-21T04:42:44.036Z,6.00
2017-12-21T04:45:14.344Z,6.10
2017-12-21T04:47:42.657Z,5.90
2017-12-21T04:50:11.785Z,7.80
2017-12-21T04:52:40.190Z,5.60
2017-12-21T04:55:08.572Z,6.60
2017-12-21T04:57:36.968Z,5.70
2017-12-21T05:00:05.376Z,5.50
2017-12-21T05:02:33.756Z,4.37
2017-12-21T05:05:02.172Z,4.47
2017-12-21T05:07:30.765Z,5.07
2017-12-21T05:09:59.128Z,4.50
2017-12-21T05:12:27.542Z,7.57
2017-12-21T05:14:56.713Z,5.20
2017-12-21T05:17:25.074Z,4.50
2017-12-21T05:19:53.379Z,5.40
2017-12-21T05:22:21.767Z,4.27
2017-12-21T05:24:50.109Z,5.80
2017-12-21T05:27:21.294Z,6.93
2017-12-21T05:32:47.931Z,3.70
2017-12-21T05:35:16.256Z,3.50
2017-12-21T05:37:45.320Z,3.97
2017-12-21T05:40:13.664Z,3.67
2017-12-21T05:42:42.034Z,3.60
2017-12-21T05:45:10.409Z,4.30
2017-12-21T05:47:38.820Z,5.03
2017-12-21T05:50:07.193Z,3.87
2017-12-21T05:52:35.509Z,4.33
2017-12-21T05:55:04.405Z,3.70
2017-12-21T05:57:32.756Z,3.70
2017-12-21T06:00:01.873Z,5.40
2017-12-21T06:02:30.237Z,11.97
2017-12-21T06:04:58.563Z,7.70
2017-12-21T06:07:27.677Z,10.77
2017-12-21T06:09:56.036Z,4.77
2017-12-21T06:12:25.130Z,4.67
2017-12-21T06:14:54.331Z,5.07
2017-12-21T06:17:23.188Z,4.57
2017-12-21T06:19:51.559Z,5.37
2017-12-21T06:22:19.894Z,6.40
2017-12-21T06:24:51.063Z,5.27
2017-12-21T06:27:22.057Z,11.03
2017-12-21T06:29:51.180Z,5.77
2017-12-21T06:32:19.568Z,5.43
2017-12-21T06:34:47.912Z,6.23
2017-12-21T06:37:17.013Z,5.60
2017-12-21T06:39:45.428Z,5.87
2017-12-21T06:42:13.762Z,5.70
2017-12-21T06:44:42.896Z,5.43
2017-12-21T06:47:11.319Z,6.07
2017-12-21T06:49:39.654Z,5.83
2017-12-21T06:52:08.059Z,6.10
2017-12-21T06:54:36.531Z,6.20
2017-12-21T06:57:04.849Z,6.20
2017-12-21T06:59:33.200Z,6.43
2017-12-21T07:02:02.036Z,6.93
2017-12-21T07:04:30.389Z,6.83
2017-12-21T07:06:58.713Z,8.00
2017-12-21T07:09:27.062Z,6.80
2017-12-21T07:11:56.155Z,5.97
2017-12-21T07:14:37.303Z,7.20
2017-12-21T07:17:05.658Z,7.50
2017-12-21T07:19:33.970Z,7.73
2017-12-21T07:22:02.468Z,8.20
2017-12-21T07:24:30.815Z,9.80
2017-12-21T07:26:59.170Z,12.70
2017-12-21T07:29:27.561Z,8.83
2017-12-21T07:31:55.999Z,12.77
2017-12-21T07:34:24.351Z,15.00
2017-12-21T07:36:52.762Z,14.03
2017-12-21T07:39:26.733Z,10.27
2017-12-21T07:41:55.384Z,13.17
2017-12-21T07:44:23.750Z,13.30
2017-12-21T07:46:52.117Z,12.60
2017-12-21T07:49:21.217Z,16.27
2017-12-21T07:51:50.343Z,16.07
2017-12-21T07:54:18.674Z,16.80
2017-12-21T07:56:47.100Z,16.03
2017-12-21T07:59:15.438Z,21.97
2017-12-21T08:01:43.778Z,15.20
2017-12-21T08:04:12.397Z,17.23
2017-12-21T08:06:40.765Z,12.90
2017-12-21T08:09:09.099Z,12.53
2017-12-21T08:11:37.438Z,11.20
2017-12-21T08:14:06.593Z,16.10
2017-12-21T08:16:34.934Z,11.60
2017-12-21T08:19:03.302Z,13.37
2017-12-21T08:21:32.378Z,10.73
2017-12-21T08:24:00.721Z,12.30
2017-12-21T08:26:29.196Z,12.03
2017-12-21T08:28:57.586Z,12.23
2017-12-21T08:31:25.927Z,15.83
2017-12-21T08:33:54.262Z,11.03
2017-12-21T08:36:22.610Z,10.67
2017-12-21T08:38:50.933Z,11.37
2017-12-21T08:41:19.572Z,10.03
2017-12-21T08:43:47.931Z,18.17
2017-12-21T08:46:16.298Z,10.63
2017-12-21T08:48:45.939Z,12.23
2017-12-21T08:51:14.280Z,11.47
2017-12-21T08:53:43.413Z,14.00
2017-12-21T08:56:11.816Z,10.40
2017-12-21T08:58:40.214Z,10.37
2017-12-21T09:01:09.372Z,11.47
2017-12-21T09:03:38.213Z,13.03
2017-12-21T09:06:07.323Z,15.67
2017-12-21T09:08:55.386Z,10.03
2017-12-21T09:11:23.696Z,12.10
2017-12-21T09:13:52.839Z,8.87
2017-12-21T09:16:21.203Z,9.57
2017-12-21T09:18:49.528Z,9.73
2017-12-21T09:21:17.880Z,10.10
2017-12-21T09:23:46.221Z,16.17
2017-12-21T09:26:14.591Z,15.73
2017-12-21T09:28:42.938Z,23.03
2017-12-21T09:31:11.678Z,23.90
2017-12-21T09:33:42.754Z,30.07
2017-12-21T09:36:11.092Z,32.43
2017-12-21T09:38:39.448Z,36.43
2017-12-21T09:41:07.813Z,37.53
2017-12-21T09:43:36.212Z,34.50
2017-12-21T09:46:04.570Z,37.90
2017-12-21T09:48:32.915Z,41.23
2017-12-21T09:51:01.241Z,45.77
2017-12-21T09:53:29.922Z,42.90
2017-12-21T09:55:58.324Z,38.03
2017-12-21T09:58:26.707Z,38.90
2017-12-21T10:00:55.153Z,36.77
2017-12-21T10:03:23.503Z,40.57
2017-12-21T10:05:52.625Z,31.80
2017-12-21T10:08:20.971Z,34.50
2017-12-21T10:10:50.117Z,31.50
2017-12-21T10:13:18.463Z,34.07
2017-12-21T10:15:47.450Z,29.30
2017-12-21T10:18:16.571Z,27.97
2017-12-21T10:20:44.954Z,34.40
2017-12-21T10:23:13.340Z,31.53
2017-12-21T10:25:41.667Z,39.60
2017-12-21T10:28:10.011Z,39.47
2017-12-21T10:30:38.373Z,34.03
2017-12-21T10:33:06.730Z,35.67
2017-12-21T10:35:35.094Z,55.27
2017-12-21T10:38:04.589Z,44.23
2017-12-21T10:40:32.937Z,40.70
2017-12-21T10:43:01.251Z,39.93
2017-12-21T10:45:30.396Z,34.50
2017-12-21T10:47:58.734Z,33.80
2017-12-21T10:50:27.086Z,32.37
2017-12-21T10:52:55.431Z,32.50
2017-12-21T10:55:23.750Z,35.13
2017-12-21T10:57:52.112Z,31.60
2017-12-21T11:00:20.954Z,36.00
2017-12-21T11:02:49.396Z,35.07
2017-12-21T11:05:17.747Z,36.40
2017-12-21T11:07:46.128Z,36.23
2017-12-21T11:10:14.466Z,39.30
2017-12-21T11:12:42.796Z,35.23
2017-12-21T11:15:11.170Z,39.53
2017-12-21T11:17:39.499Z,37.00
2017-12-21T11:20:07.856Z,40.03
2017-12-21T11:22:37.153Z,39.20
2017-12-21T11:25:05.471Z,32.70
2017-12-21T11:27:38.594Z,33.23
2017-12-21T11:30:07.685Z,34.80
2017-12-21T11:32:35.993Z,38.40
2017-12-21T11:35:04.358Z,36.50
2017-12-21T11:37:32.690Z,40.70
2017-12-21T11:40:01.010Z,41.30
2017-12-21T11:42:29.933Z,40.57
2017-12-21T11:44:58.263Z,42.73
2017-12-21T11:47:26.572Z,39.63
2017-12-21T11:49:54.928Z,39.00
2017-12-21T11:52:23.339Z,40.67
2017-12-21T11:54:51.713Z,31.33
2017-12-21T11:57:20.068Z,37.90
2017-12-21T11:59:48.402Z,32.57
2017-12-21T12:02:16.745Z,28.30
2017-12-21T12:04:45.435Z,31.63
2017-12-21T12:07:13.776Z,47.00
2017-12-21T12:09:42.123Z,32.80
2017-12-21T12:12:11.266Z,30.53
2017-12-21T12:14:39.595Z,37.30
2017-12-21T12:17:07.904Z,33.33
2017-12-21T12:19:36.265Z,28.77
2017-12-21T12:22:04.606Z,23.07
2017-12-21T12:24:32.981Z,34.47
2017-12-21T12:27:01.542Z,44.23
2017-12-21T12:29:29.873Z,33.93
2017-12-21T12:31:58.248Z,44.40
2017-12-21T12:34:26.619Z,37.40
2017-12-21T12:36:55.766Z,42.93
2017-12-21T12:39:24.185Z,44.13
2017-12-21T12:41:54.356Z,39.00
2017-12-21T12:44:22.728Z,41.47
2017-12-21T12:46:51.076Z,40.27
2017-12-21T12:49:20.417Z,41.10
2017-12-21T12:51:48.752Z,50.40
2017-12-21T12:54:17.092Z,38.63
2017-12-21T12:56:45.452Z,43.83
2017-12-21T12:59:13.816Z,40.33
2017-12-21T13:01:42.243Z,35.90
2017-12-21T13:04:10.619Z,37.70
2017-12-21T13:06:38.966Z,32.50
2017-12-21T13:09:07.328Z,19.87
2017-12-21T13:11:37.663Z,19.07
2017-12-21T13:14:06.031Z,14.10
2017-12-21T13:16:34.384Z,16.97
2017-12-21T13:19:02.727Z,19.00
2017-12-21T13:21:31.096Z,16.87
2017-12-21T13:24:00.290Z,12.57
2017-12-21T13:26:28.679Z,9.43
2017-12-21T13:28:57.056Z,15.60
2017-12-21T13:31:25.610Z,10.93
2017-12-21T13:33:54.094Z,11.27
2017-12-21T13:36:22.458Z,12.13
2017-12-21T13:38:50.810Z,15.00
2017-12-21T13:41:19.156Z,9.07
2017-12-21T13:43:47.490Z,12.63
2017-12-21T13:46:15.827Z,12.00
2017-12-21T13:48:45.027Z,13.50
2017-12-21T13:51:13.439Z,17.60
2017-12-21T13:53:42.548Z,15.47
2017-12-21T13:56:11.969Z,26.33
2017-12-21T13:58:40.380Z,19.63
2017-12-21T14:01:09.006Z,20.67
2017-12-21T14:03:37.429Z,24.90
2017-12-21T14:06:05.792Z,27.23
2017-12-21T14:08:34.236Z,40.53
2017-12-21T14:11:02.590Z,27.60
2017-12-21T14:13:30.955Z,29.93
2017-12-21T14:15:59.309Z,16.97
2017-12-21T14:18:27.841Z,22.10
2017-12-21T14:20:56.204Z,19.87
2017-12-21T14:23:24.564Z,28.10
2017-12-21T14:25:52.950Z,22.70
2017-12-21T14:28:21.314Z,19.93
2017-12-21T14:30:49.695Z,19.50
2017-12-21T14:33:18.126Z,18.80
2017-12-21T14:36:03.110Z,23.67
2017-12-21T14:38:32.122Z,19.10
2017-12-21T14:41:00.485Z,20.93
2017-12-21T14:43:28.882Z,25.53
2017-12-21T14:45:57.221Z,16.53
2017-12-21T14:48:25.621Z,13.63
2017-12-21T14:50:53.978Z,14.43
2017-12-21T14:53:23.139Z,12.50
2017-12-21T14:55:51.490Z,25.67
2017-12-21T14:58:19.869Z,15.37
2017-12-21T15:00:49.720Z,12.33
2017-12-21T15:03:18.060Z,14.63
2017-12-21T15:05:46.399Z,13.93
2017-12-21T15:08:14.752Z,23.77
2017-12-21T15:10:43.129Z,15.17
2017-12-21T15:13:11.471Z,9.00
2017-12-21T15:15:39.907Z,10.23
2017-12-21T15:18:14.070Z,5.03
2017-12-21T15:20:43.523Z,13.97
2017-12-21T15:23:11.846Z,11.83
2017-12-21T15:25:40.188Z,9.80
2017-12-21T15:28:08.519Z,17.13
2017-12-21T15:30:36.845Z,16.03
2017-12-21T15:33:05.167Z,11.37
2017-12-21T15:35:34.337Z,13.07
2017-12-21T15:38:02.756Z,13.53
2017-12-21T15:40:31.866Z,10.67
2017-12-21T15:43:00.368Z,12.23
2017-12-21T15:45:28.730Z,16.13
2017-12-21T15:47:57.082Z,22.20
2017-12-21T15:50:26.300Z,14.30
2017-12-21T15:52:54.667Z,10.20
2017-12-21T15:55:23.774Z,10.20
2017-12-21T15:57:52.158Z,11.53
2017-12-21T16:00:20.517Z,13.40
2017-12-21T16:02:49.681Z,10.33
2017-12-21T16:05:18.175Z,14.30
2017-12-21T16:07:46.522Z,17.83
2017-12-21T16:10:14.860Z,11.40
2017-12-21T16:12:43.982Z,19.10
2017-12-21T16:15:12.339Z,11.33
2017-12-21T16:17:41.474Z,10.90
2017-12-21T16:20:09.874Z,8.33
2017-12-21T16:22:38.216Z,22.30
2017-12-21T16:25:06.555Z,16.40
2017-12-21T16:27:35.760Z,26.40
2017-12-21T16:30:04.900Z,14.00
2017-12-21T16:32:33.229Z,20.13
2017-12-21T16:35:01.599Z,22.73
2017-12-21T16:37:29.936Z,11.10
2017-12-21T16:39:58.229Z,20.97
2017-12-21T16:42:27.388Z,14.03
2017-12-21T16:44:55.767Z,18.07
2017-12-21T16:47:24.144Z,33.73
2017-12-21T16:49:53.168Z,11.97
2017-12-21T16:52:21.509Z,23.90
2017-12-21T16:54:50.573Z,13.73
2017-12-21T16:57:26.751Z,20.57
2017-12-21T16:59:55.099Z,12.17
2017-12-21T17:02:25.589Z,16.83
2017-12-21T17:04:54.678Z,11.30
2017-12-21T17:07:22.971Z,13.50
2017-12-21T17:09:59.208Z,31.07
2017-12-21T17:12:27.520Z,10.07
2017-12-21T17:14:55.833Z,19.00
2017-12-21T17:17:24.599Z,12.67
2017-12-21T17:19:52.927Z,14.67
2017-12-21T17:22:21.286Z,9.43
2017-12-21T17:24:49.969Z,18.80
2017-12-21T17:27:18.304Z,20.40
2017-12-21T17:29:46.641Z,10.40
2017-12-21T17:32:14.986Z,14.47
2017-12-21T17:34:43.302Z,11.60
2017-12-21T17:37:12.397Z,11.60
2017-12-21T17:39:40.742Z,18.93
2017-12-21T17:42:09.051Z,11.50
2017-12-21T17:44:37.384Z,20.97
2017-12-21T17:47:06.253Z,13.30
2017-12-21T17:49:34.627Z,19.13
2017-12-21T17:52:02.987Z,22.13
2017-12-21T17:54:31.738Z,20.40
2017-12-21T17:57:00.111Z,16.97
2017-12-21T17:59:28.479Z,14.60
2017-12-21T18:01:56.901Z,21.50
2017-12-21T18:04:25.279Z,21.33
2017-12-21T18:06:54.400Z,17.53
2017-12-21T18:09:23.646Z,21.30
2017-12-21T18:11:52.012Z,12.80
2017-12-21T18:14:20.375Z,14.83
2017-12-21T18:16:48.741Z,20.10
2017-12-21T18:19:17.120Z,21.53
2017-12-21T18:21:45.472Z,17.30
2017-12-21T18:24:13.831Z,14.13
2017-12-21T18:26:42.158Z,16.20
2017-12-21T18:29:10.508Z,10.50
2017-12-21T18:31:39.510Z,9.70
2017-12-21T18:34:07.853Z,12.50
2017-12-21T18:36:36.183Z,9.17
2017-12-21T18:39:05.313Z,18.40
2017-12-21T18:41:34.585Z,10.97
2017-12-21T18:44:02.956Z,6.70
2017-12-21T18:46:31.344Z,8.60
2017-12-21T18:48:59.710Z,16.47
2017-12-21T18:51:28.796Z,10.57
2017-12-21T18:53:57.525Z,6.20
2017-12-21T18:56:25.855Z,12.23
2017-12-21T19:01:51.561Z,13.10
2017-12-21T19:04:19.908Z,14.33
2017-12-21T19:06:48.531Z,12.43
2017-12-21T19:09:16.892Z,9.13
2017-12-21T19:11:45.228Z,11.53
2017-12-21T19:14:14.961Z,8.60
2017-12-21T19:16:44.052Z,6.00
2017-12-21T19:19:12.392Z,16.53
2017-12-21T19:21:41.019Z,8.93
2017-12-21T19:24:09.362Z,21.60
2017-12-21T19:26:37.742Z,9.50
2017-12-21T19:29:06.586Z,13.30
2017-12-21T19:31:34.949Z,9.30
2017-12-21T19:34:03.293Z,14.23
2017-12-21T19:36:32.801Z,18.37
2017-12-21T19:39:01.171Z,10.70
2017-12-21T19:41:29.505Z,11.70
2017-12-21T19:43:58.256Z,22.20
2017-12-21T19:46:27.464Z,16.47
2017-12-21T19:48:55.799Z,19.57
2017-12-21T19:51:24.699Z,17.93
2017-12-21T19:53:53.055Z,17.00
2017-12-21T19:56:21.443Z,14.03
2017-12-21T19:58:50.827Z,12.50
2017-12-21T20:01:19.960Z,14.80
2017-12-21T20:03:48.315Z,11.20
2017-12-21T20:06:16.938Z,14.50
2017-12-21T20:08:45.300Z,6.80
2017-12-21T20:11:13.695Z,7.80
2017-12-21T20:13:42.330Z,14.63
2017-12-21T20:16:10.675Z,11.93
2017-12-21T20:18:39.785Z,11.17
2017-12-21T20:21:08.612Z,6.67
2017-12-21T20:23:36.993Z,11.97
2017-12-21T20:26:05.327Z,11.43
2017-12-21T20:28:34.221Z,13.27
2017-12-21T20:31:02.562Z,16.33
2017-12-21T20:33:30.884Z,12.17
2017-12-21T20:35:59.499Z,10.03
2017-12-21T20:38:27.810Z,8.63
2017-12-21T20:40:56.132Z,11.33
2017-12-21T20:43:28.437Z,9.50
2017-12-21T20:45:56.927Z,12.77
2017-12-21T20:48:25.242Z,9.50
2017-12-21T20:50:54.685Z,13.20
2017-12-21T20:53:23.046Z,11.93
2017-12-21T20:55:51.380Z,14.30
2017-12-21T20:58:20.291Z,9.93
2017-12-21T21:00:48.979Z,9.63
2017-12-21T21:03:17.308Z,8.60
2017-12-21T21:05:47.167Z,11.23
2017-12-21T21:08:15.543Z,24.13
2017-12-21T21:10:44.648Z,12.80
2017-12-21T21:13:14.014Z,9.40
2017-12-21T21:15:42.323Z,12.10
2017-12-21T21:18:11.441Z,8.20
2017-12-21T21:20:40.116Z,15.90
2017-12-21T21:23:08.436Z,6.53
2017-12-21T21:25:36.751Z,9.20
2017-12-21T21:28:05.769Z,18.37
2017-12-21T21:30:34.117Z,13.80
2017-12-21T21:33:03.272Z,23.50
2017-12-21T21:35:32.026Z,10.57
2017-12-21T21:38:00.391Z,14.70
2017-12-21T21:40:29.517Z,14.57
2017-12-21T21:42:58.305Z,15.73
2017-12-21T21:45:26.667Z,14.93
2017-12-21T21:47:55.777Z,21.50
2017-12-21T21:50:24.805Z,15.97
2017-12-21T21:52:53.181Z,11.10
2017-12-21T21:55:21.559Z,19.60
2017-12-21T21:57:50.269Z,14.90
2017-12-21T22:00:18.697Z,11.63
2017-12-21T22:02:47.098Z,13.80
2017-12-21T22:05:16.110Z,11.83
2017-12-21T22:07:44.453Z,14.77
2017-12-21T22:10:12.843Z,18.20
2017-12-21T22:12:41.586Z,12.40
2017-12-21T22:15:10.324Z,16.00
2017-12-21T22:17:38.703Z,19.37
2017-12-21T22:20:07.449Z,15.57
2017-12-21T22:22:36.552Z,13.50
2017-12-21T22:25:05.819Z,23.60
2017-12-21T22:27:34.348Z,19.47
2017-12-21T22:30:02.806Z,15.10
2017-12-21T22:32:31.177Z,19.80
2017-12-21T22:34:59.594Z,20.93
2017-12-21T22:37:27.988Z,19.47
2017-12-21T22:39:58.547Z,21.40
2017-12-21T22:42:26.933Z,18.93
2017-12-21T22:44:55.282Z,20.37
2017-12-21T22:47:23.614Z,22.60
2017-12-21T22:49:51.992Z,21.60
2017-12-21T22:52:20.647Z,23.00
2017-12-21T22:54:48.990Z,25.40
2017-12-21T22:57:17.678Z,25.50
2017-12-21T22:59:46.050Z,24.50
2017-12-21T23:02:14.407Z,30.37
2017-12-21T23:04:42.802Z,30.87
2017-12-21T23:07:11.887Z,26.97
2017-12-21T23:09:40.985Z,26.50
2017-12-21T23:12:09.349Z,24.67
2017-12-21T23:14:37.702Z,29.23
2017-12-21T23:17:06.070Z,31.97
2017-12-21T23:19:34.927Z,32.23
2017-12-21T23:22:03.328Z,36.90
2017-12-21T23:24:31.666Z,31.87
2017-12-21T23:27:00.812Z,34.20
2017-12-21T23:29:35.021Z,37.40
2017-12-21T23:32:03.409Z,38.03
2017-12-21T23:34:31.755Z,35.23
2017-12-21T23:37:00.076Z,34.20
2017-12-21T23:39:28.641Z,34.73
2017-12-21T23:41:57.018Z,34.50
2017-12-21T23:44:25.333Z,36.47
2017-12-21T23:46:53.699Z,36.83
2017-12-21T23:49:22.054Z,37.83
2017-12-21T23:51:50.394Z,38.23
2017-12-21T23:54:19.514Z,39.60
2017-12-21T23:56:54.527Z,39.60
2017-12-21T23:59:24.048Z,41.10
